createdAt,value
2022-08-08T00:00:53.092Z,1014.33
2022-08-08T00:01:00.262Z,1014.41
2022-08-08T00:02:15.296Z,1014.41
2022-08-08T00:02:54.545Z,1014.42
2022-08-08T00:03:53.714Z,1014.46
2022-08-08T00:04:55.771Z,1014.38
2022-08-08T00:06:03.163Z,1014.44
2022-08-08T00:06:55.168Z,1014.44
2022-08-08T00:07:54.336Z,1014.52
2022-08-08T00:08:54.587Z,1014.45
2022-08-08T00:09:55.505Z,1014.45
2022-08-08T00:10:54.866Z,1014.45
2022-08-08T00:12:10.053Z,1014.45
2022-08-08T00:12:56.943Z,1014.51
2022-08-08T00:14:15.788Z,1014.52
2022-08-08T00:15:00.338Z,1014.49
2022-08-08T00:15:58.397Z,1014.52
2022-08-08T00:16:56.481Z,1014.48
2022-08-08T00:18:03.930Z,1014.45
2022-08-08T00:18:57.343Z,1014.51
2022-08-08T00:19:56.949Z,1014.54
2022-08-08T00:20:57.479Z,1014.48
2022-08-08T00:21:57.481Z,1014.49
2022-08-08T00:22:57.116Z,1014.47
2022-08-08T00:23:57.281Z,1014.51
2022-08-08T00:24:58.007Z,1014.54
2022-08-08T00:25:57.652Z,1014.55
2022-08-08T00:26:57.825Z,1014.57
2022-08-08T00:27:57.950Z,1014.54
2022-08-08T00:28:58.495Z,1014.56
2022-08-08T00:29:58.272Z,1014.54
2022-08-08T00:31:00.769Z,1014.51
2022-08-08T00:32:28.513Z,1014.56
2022-08-08T00:33:00.480Z,1014.49
2022-08-08T00:34:18.058Z,1014.53
2022-08-08T00:35:00.139Z,1014.58
2022-08-08T00:36:00.340Z,1014.59
2022-08-08T00:37:03.781Z,1014.53
2022-08-08T00:38:02.793Z,1014.63
2022-08-08T00:39:00.010Z,1014.55
2022-08-08T00:41:11.527Z,1014.58
2022-08-08T00:41:11.653Z,1014.56
2022-08-08T00:42:09.063Z,1014.60
2022-08-08T00:43:06.065Z,1014.59
2022-08-08T00:44:01.816Z,1014.58
2022-08-08T00:45:02.948Z,1014.57
2022-08-08T00:46:01.496Z,1014.49
2022-08-08T00:47:01.124Z,1014.53
2022-08-08T00:48:04.971Z,1014.46
2022-08-08T00:49:02.424Z,1014.56
2022-08-08T00:50:02.485Z,1014.55
2022-08-08T00:51:01.923Z,1014.59
2022-08-08T00:52:03.063Z,1014.50
2022-08-08T00:53:02.200Z,1014.45
2022-08-08T00:54:13.706Z,1014.48
2022-08-08T00:55:03.587Z,1014.49
2022-08-08T00:56:02.755Z,1014.56
2022-08-08T00:57:03.522Z,1014.44
2022-08-08T00:58:04.000Z,1014.48
2022-08-08T00:59:04.682Z,1014.53
2022-08-08T01:00:05.026Z,1014.48
2022-08-08T01:01:04.565Z,1014.54
2022-08-08T01:02:03.793Z,1014.54
2022-08-08T01:03:58.059Z,1014.52
2022-08-08T01:04:05.342Z,1014.54
2022-08-08T01:05:05.195Z,1014.55
2022-08-08T01:06:04.344Z,1014.51
2022-08-08T01:07:05.963Z,1014.47
2022-08-08T01:08:04.827Z,1014.60
2022-08-08T01:09:35.849Z,1014.58
2022-08-08T01:10:06.455Z,1014.60
2022-08-08T01:11:06.498Z,1014.58
2022-08-08T01:12:05.451Z,1014.62
2022-08-08T01:13:05.639Z,1014.61
2022-08-08T01:14:05.828Z,1014.58
2022-08-08T01:15:07.103Z,1014.63
2022-08-08T01:16:06.242Z,1014.65
2022-08-08T01:17:06.993Z,1014.63
2022-08-08T01:18:06.628Z,1014.57
2022-08-08T01:19:13.909Z,1014.60
2022-08-08T01:20:07.976Z,1014.59
2022-08-08T01:21:08.194Z,1014.57
2022-08-08T01:22:13.404Z,1014.62
2022-08-08T01:23:08.547Z,1014.69
2022-08-08T01:24:13.730Z,1014.67
2022-08-08T01:25:08.912Z,1014.69
2022-08-08T01:26:11.750Z,1014.73
2022-08-08T01:27:10.763Z,1014.74
2022-08-08T01:28:09.993Z,1014.75
2022-08-08T01:29:09.626Z,1014.78
2022-08-08T01:30:08.784Z,1014.82
2022-08-08T01:31:10.474Z,1014.79
2022-08-08T01:32:15.699Z,1014.81
2022-08-08T01:33:16.375Z,1014.83
2022-08-08T01:34:10.608Z,1014.82
2022-08-08T01:35:11.727Z,1014.79
2022-08-08T01:36:09.889Z,1014.83
2022-08-08T01:37:13.669Z,1014.73
2022-08-08T01:38:10.998Z,1014.77
2022-08-08T01:39:23.422Z,1014.85
2022-08-08T01:40:37.386Z,1014.82
2022-08-08T01:41:11.772Z,1014.86
2022-08-08T01:42:11.810Z,1014.81
2022-08-08T01:43:11.025Z,1014.86
2022-08-08T01:44:11.223Z,1014.87
2022-08-08T01:45:13.920Z,1014.90
2022-08-08T01:46:11.504Z,1014.85
2022-08-08T01:48:15.587Z,1014.89
2022-08-08T01:48:27.826Z,1014.84
2022-08-08T01:49:22.671Z,1014.84
2022-08-08T01:50:17.103Z,1014.84
2022-08-08T01:51:32.074Z,1014.78
2022-08-08T01:53:06.840Z,1014.79
2022-08-08T01:55:17.384Z,1014.75
2022-08-08T01:55:17.535Z,1014.82
2022-08-08T01:56:21.580Z,1014.79
2022-08-08T01:56:30.441Z,1014.83
2022-08-08T01:57:17.446Z,1014.86
2022-08-08T01:58:14.002Z,1014.78
2022-08-08T01:59:14.032Z,1014.86
2022-08-08T02:00:14.533Z,1014.90
2022-08-08T02:01:15.852Z,1014.88
2022-08-08T02:02:34.906Z,1014.86
2022-08-08T02:03:57.477Z,1014.94
2022-08-08T02:04:15.923Z,1014.96
2022-08-08T02:05:15.018Z,1014.91
2022-08-08T02:06:32.986Z,1014.93
2022-08-08T02:07:16.405Z,1014.94
2022-08-08T02:08:16.530Z,1014.88
2022-08-08T02:09:17.578Z,1014.90
2022-08-08T02:10:30.271Z,1014.92
2022-08-08T02:11:23.661Z,1014.95
2022-08-08T02:12:18.404Z,1014.92
2022-08-08T02:13:54.934Z,1014.86
2022-08-08T02:14:17.712Z,1014.95
2022-08-08T02:15:17.035Z,1014.91
2022-08-08T02:16:21.229Z,1014.91
2022-08-08T02:17:20.569Z,1014.90
2022-08-08T02:18:17.338Z,1014.96
2022-08-08T02:19:50.541Z,1015.00
2022-08-08T02:21:01.130Z,1014.95
2022-08-08T02:21:20.258Z,1014.91
2022-08-08T02:22:18.096Z,1014.86
2022-08-08T02:23:19.217Z,1014.90
2022-08-08T02:24:19.828Z,1014.90
2022-08-08T02:25:18.620Z,1014.94
2022-08-08T02:26:18.855Z,1014.97
2022-08-08T02:27:19.083Z,1014.95
2022-08-08T02:28:19.247Z,1014.91
2022-08-08T02:29:20.770Z,1014.96
2022-08-08T02:30:20.900Z,1014.94
2022-08-08T02:31:43.625Z,1014.90
2022-08-08T02:32:22.665Z,1014.94
2022-08-08T02:33:22.547Z,1014.91
2022-08-08T02:34:27.549Z,1014.98
2022-08-08T02:35:22.153Z,1014.95
2022-08-08T02:36:20.673Z,1014.87
2022-08-08T02:37:52.875Z,1014.93
2022-08-08T02:38:25.054Z,1014.90
2022-08-08T02:39:41.367Z,1014.88
2022-08-08T02:40:23.104Z,1014.87
2022-08-08T02:42:03.445Z,1014.82
2022-08-08T02:42:22.737Z,1014.90
2022-08-08T02:44:36.997Z,1014.82
2022-08-08T02:44:37.593Z,1014.85
2022-08-08T02:45:24.033Z,1014.87
2022-08-08T02:46:23.535Z,1014.87
2022-08-08T02:47:22.728Z,1014.85
2022-08-08T02:48:25.752Z,1014.84
2022-08-08T02:49:27.707Z,1014.89
2022-08-08T02:50:25.038Z,1014.88
2022-08-08T02:51:30.203Z,1014.81
2022-08-08T02:52:34.983Z,1014.88
2022-08-08T02:53:25.540Z,1014.88
2022-08-08T02:54:24.068Z,1014.85
2022-08-08T02:55:24.206Z,1014.87
2022-08-08T02:56:24.412Z,1014.91
2022-08-08T02:57:25.542Z,1014.87
2022-08-08T02:58:26.543Z,1014.91
2022-08-08T02:59:37.347Z,1014.95
2022-08-08T03:00:30.923Z,1014.92
2022-08-08T03:01:26.354Z,1014.87
2022-08-08T03:02:30.022Z,1014.88
2022-08-08T03:05:00.854Z,1014.92
2022-08-08T03:05:04.164Z,1014.85
2022-08-08T03:05:27.078Z,1014.95
2022-08-08T03:06:34.889Z,1014.98
2022-08-08T03:07:41.163Z,1014.97
2022-08-08T03:08:27.629Z,1014.91
2022-08-08T03:09:28.565Z,1014.96
2022-08-08T03:10:32.546Z,1015.03
2022-08-08T03:11:47.842Z,1014.92
2022-08-08T03:12:36.471Z,1015.04
2022-08-08T03:15:55.726Z,1015.02
2022-08-08T03:15:57.992Z,1014.97
2022-08-08T03:15:59.073Z,1015.07
2022-08-08T03:16:35.425Z,1015.00
2022-08-08T03:17:39.731Z,1015.06
2022-08-08T03:18:31.147Z,1015.09
2022-08-08T03:19:28.639Z,1015.08
2022-08-08T03:20:29.546Z,1015.08
2022-08-08T03:21:54.682Z,1015.07
2022-08-08T03:22:38.270Z,1015.12
2022-08-08T03:23:56.322Z,1015.12
2022-08-08T03:24:30.428Z,1015.15
2022-08-08T03:25:35.948Z,1015.11
2022-08-08T03:26:31.019Z,1015.21
2022-08-08T03:27:29.829Z,1015.12
2022-08-08T03:28:30.983Z,1015.17
2022-08-08T03:29:55.040Z,1015.19
2022-08-08T03:30:32.295Z,1015.27
2022-08-08T03:31:54.682Z,1015.21
2022-08-08T03:32:32.847Z,1015.24
2022-08-08T03:33:55.355Z,1015.28
2022-08-08T03:34:31.881Z,1015.27
2022-08-08T03:35:33.285Z,1015.32
2022-08-08T03:36:31.573Z,1015.31
2022-08-08T03:38:54.845Z,1015.31
2022-08-08T03:38:57.202Z,1015.35
2022-08-08T03:39:32.849Z,1015.38
2022-08-08T03:40:32.963Z,1015.34
2022-08-08T03:42:28.446Z,1015.31
2022-08-08T03:42:33.349Z,1015.37
2022-08-08T03:43:38.739Z,1015.33
2022-08-08T03:44:33.674Z,1015.38
2022-08-08T03:46:04.925Z,1015.40
2022-08-08T03:46:34.174Z,1015.41
2022-08-08T03:47:45.207Z,1015.38
2022-08-08T03:49:09.493Z,1015.35
2022-08-08T03:49:59.855Z,1015.36
2022-08-08T03:50:35.554Z,1015.39
2022-08-08T03:51:50.575Z,1015.37
2022-08-08T03:52:36.050Z,1015.36
2022-08-08T03:53:42.404Z,1015.35
2022-08-08T03:54:41.188Z,1015.40
2022-08-08T03:55:57.241Z,1015.48
2022-08-08T03:56:36.064Z,1015.47
2022-08-08T03:58:32.906Z,1015.50
2022-08-08T03:58:38.118Z,1015.53
2022-08-08T04:00:02.703Z,1015.50
2022-08-08T04:00:36.490Z,1015.54
2022-08-08T04:02:13.216Z,1015.50
2022-08-08T04:02:51.893Z,1015.57
2022-08-08T04:03:59.715Z,1015.57
2022-08-08T04:04:37.304Z,1015.65
2022-08-08T04:05:36.460Z,1015.60
2022-08-08T04:06:37.556Z,1015.62
2022-08-08T04:07:36.804Z,1015.63
2022-08-08T04:08:37.970Z,1015.61
2022-08-08T04:10:00.515Z,1015.61
2022-08-08T04:10:39.592Z,1015.63
2022-08-08T04:11:58.987Z,1015.63
2022-08-08T04:12:38.590Z,1015.66
2022-08-08T04:14:03.491Z,1015.64
2022-08-08T04:14:37.916Z,1015.64
2022-08-08T04:15:38.754Z,1015.61
2022-08-08T04:16:40.979Z,1015.64
2022-08-08T04:17:58.605Z,1015.68
2022-08-08T04:18:44.597Z,1015.68
2022-08-08T04:19:41.560Z,1015.64
2022-08-08T04:20:38.941Z,1015.59
2022-08-08T04:21:41.444Z,1015.67
2022-08-08T04:22:40.578Z,1015.68
2022-08-08T04:24:05.301Z,1015.67
2022-08-08T04:24:40.631Z,1015.65
2022-08-08T04:25:40.568Z,1015.67
2022-08-08T04:26:58.278Z,1015.62
2022-08-08T04:28:02.899Z,1015.64
2022-08-08T04:28:41.696Z,1015.64
2022-08-08T04:29:40.575Z,1015.65
2022-08-08T04:30:44.794Z,1015.64
2022-08-08T04:31:58.426Z,1015.68
2022-08-08T04:32:42.535Z,1015.67
2022-08-08T04:33:43.098Z,1015.66
2022-08-08T04:34:55.465Z,1015.63
2022-08-08T04:35:50.640Z,1015.67
2022-08-08T04:36:42.903Z,1015.62
2022-08-08T04:37:42.079Z,1015.62
2022-08-08T04:38:43.790Z,1015.64
2022-08-08T04:40:05.815Z,1015.65
2022-08-08T04:40:53.276Z,1015.69
2022-08-08T04:41:44.592Z,1015.64
2022-08-08T04:42:55.998Z,1015.61
2022-08-08T04:43:45.444Z,1015.65
2022-08-08T04:44:43.182Z,1015.66
2022-08-08T04:45:43.576Z,1015.53
2022-08-08T04:46:43.600Z,1015.59
2022-08-08T04:47:46.349Z,1015.62
2022-08-08T04:48:43.967Z,1015.53
2022-08-08T04:49:59.054Z,1015.60
2022-08-08T04:50:46.250Z,1015.59
2022-08-08T04:51:54.849Z,1015.53
2022-08-08T04:52:48.537Z,1015.59
2022-08-08T04:54:36.366Z,1015.56
2022-08-08T04:54:46.096Z,1015.57
2022-08-08T04:55:55.604Z,1015.60
2022-08-08T04:56:46.446Z,1015.58
2022-08-08T04:57:46.570Z,1015.57
2022-08-08T04:58:48.467Z,1015.61
2022-08-08T04:59:46.567Z,1015.50
2022-08-08T05:00:48.254Z,1015.57
2022-08-08T05:01:48.373Z,1015.56
2022-08-08T05:02:46.707Z,1015.56
2022-08-08T05:04:11.008Z,1015.55
2022-08-08T05:04:48.251Z,1015.55
2022-08-08T05:05:47.572Z,1015.52
2022-08-08T05:06:48.164Z,1015.53
2022-08-08T05:07:47.390Z,1015.40
2022-08-08T05:08:51.830Z,1015.34
2022-08-08T05:09:48.571Z,1015.37
2022-08-08T05:10:48.572Z,1015.31
2022-08-08T05:11:57.279Z,1015.31
2022-08-08T05:13:00.257Z,1015.30
2022-08-08T05:13:54.785Z,1015.27
2022-08-08T05:14:49.603Z,1015.19
2022-08-08T05:16:52.484Z,1015.26
2022-08-08T05:16:53.912Z,1015.15
2022-08-08T05:17:54.245Z,1015.18
2022-08-08T05:18:49.443Z,1015.14
2022-08-08T05:20:12.852Z,1015.16
2022-08-08T05:20:52.206Z,1015.10
2022-08-08T05:21:59.960Z,1015.12
2022-08-08T05:22:51.213Z,1015.13
2022-08-08T05:23:51.079Z,1015.15
2022-08-08T05:24:51.582Z,1015.13
2022-08-08T05:25:51.584Z,1015.09
2022-08-08T05:26:50.974Z,1015.06
2022-08-08T05:27:51.106Z,1015.10
2022-08-08T05:28:57.476Z,1015.03
2022-08-08T05:29:52.651Z,1014.99
2022-08-08T05:30:51.695Z,1014.98
2022-08-08T05:32:03.468Z,1014.89
2022-08-08T05:32:52.974Z,1014.87
2022-08-08T05:33:52.107Z,1014.86
2022-08-08T05:34:53.415Z,1014.82
2022-08-08T05:35:53.931Z,1014.89
2022-08-08T05:36:53.583Z,1014.81
2022-08-08T05:37:54.679Z,1014.74
2022-08-08T05:38:54.013Z,1014.67
2022-08-08T05:39:53.712Z,1014.68
2022-08-08T05:40:57.571Z,1014.64
2022-08-08T05:41:55.518Z,1014.63
2022-08-08T05:42:53.674Z,1014.58
2022-08-08T05:44:03.734Z,1014.55
2022-08-08T05:44:55.098Z,1014.56
2022-08-08T05:46:03.087Z,1014.57
2022-08-08T05:47:02.951Z,1014.51
2022-08-08T05:48:00.505Z,1014.50
2022-08-08T05:48:55.886Z,1014.44
2022-08-08T05:49:55.901Z,1014.45
2022-08-08T05:50:58.975Z,1014.45
2022-08-08T05:51:57.095Z,1014.48
2022-08-08T05:52:56.090Z,1014.46
2022-08-08T05:54:27.101Z,1014.45
2022-08-08T05:55:00.338Z,1014.45
2022-08-08T05:56:10.955Z,1014.39
2022-08-08T05:56:58.161Z,1014.36
2022-08-08T05:58:04.760Z,1014.34
2022-08-08T05:59:03.454Z,1014.32
2022-08-08T06:00:19.737Z,1014.23
2022-08-08T06:00:58.574Z,1014.21
2022-08-08T06:01:58.182Z,1014.25
2022-08-08T06:02:59.119Z,1014.18
2022-08-08T06:03:58.152Z,1014.14
2022-08-08T06:04:58.597Z,1014.15
2022-08-08T06:05:59.055Z,1014.12
2022-08-08T06:07:00.230Z,1014.14
2022-08-08T06:08:01.954Z,1014.04
2022-08-08T06:09:00.500Z,1014.00
2022-08-08T06:10:02.326Z,1013.99
2022-08-08T06:10:58.888Z,1013.94
2022-08-08T06:11:59.035Z,1013.94
2022-08-08T06:12:59.235Z,1013.88
2022-08-08T06:13:59.349Z,1013.88
2022-08-08T06:14:59.512Z,1013.84
2022-08-08T06:15:59.689Z,1013.80
2022-08-08T06:16:59.815Z,1013.78
2022-08-08T06:18:20.099Z,1013.74
2022-08-08T06:19:01.847Z,1013.75
2022-08-08T06:20:01.101Z,1013.76
2022-08-08T06:21:03.822Z,1013.77
2022-08-08T06:22:01.608Z,1013.50
2022-08-08T06:23:02.313Z,1013.11
2022-08-08T06:24:02.420Z,1012.84
2022-08-08T06:25:01.104Z,1012.90
2022-08-08T06:26:42.991Z,1012.99
2022-08-08T06:27:01.378Z,1013.12
2022-08-08T06:28:01.636Z,1013.13
2022-08-08T06:29:02.185Z,1013.18
2022-08-08T06:30:02.284Z,1013.19
2022-08-08T06:31:02.109Z,1013.17
2022-08-08T06:32:10.362Z,1013.26
2022-08-08T06:33:03.414Z,1013.25
2022-08-08T06:34:27.973Z,1013.19
2022-08-08T06:36:00.835Z,1013.18
2022-08-08T06:36:09.433Z,1013.15
2022-08-08T06:37:24.565Z,1013.19
2022-08-08T06:38:05.113Z,1013.15
2022-08-08T06:39:06.872Z,1013.14
2022-08-08T06:40:04.343Z,1013.15
2022-08-08T06:41:03.927Z,1013.17
2022-08-08T06:42:04.061Z,1013.14
2022-08-08T06:43:05.103Z,1013.09
2022-08-08T06:44:04.413Z,1013.11
2022-08-08T06:45:05.302Z,1013.08
2022-08-08T06:46:09.226Z,1013.10
2022-08-08T06:47:05.989Z,1013.09
2022-08-08T06:48:05.318Z,1013.06
2022-08-08T06:49:05.779Z,1013.08
2022-08-08T06:50:07.109Z,1013.07
2022-08-08T06:51:07.797Z,1013.05
2022-08-08T06:52:07.604Z,1013.11
2022-08-08T06:53:09.660Z,1013.05
2022-08-08T06:54:08.104Z,1012.99
2022-08-08T06:55:06.315Z,1012.96
2022-08-08T06:56:06.475Z,1012.68
2022-08-08T06:57:06.653Z,1011.99
2022-08-08T06:58:06.871Z,1011.19
2022-08-08T06:59:09.880Z,1011.07
2022-08-08T07:00:12.407Z,1011.11
2022-08-08T07:01:11.649Z,1010.84
2022-08-08T07:02:16.818Z,1009.99
2022-08-08T07:03:08.668Z,1009.56
2022-08-08T07:04:39.126Z,1009.14
2022-08-08T07:05:11.968Z,1008.54
2022-08-08T07:06:09.198Z,1007.81
2022-08-08T07:07:11.091Z,1007.21
2022-08-08T07:08:08.869Z,1007.02
2022-08-08T07:09:08.725Z,1007.01
2022-08-08T07:10:09.886Z,1007.46
2022-08-08T07:11:09.624Z,1007.98
2022-08-08T07:12:10.232Z,1008.29
2022-08-08T07:13:10.111Z,1008.49
2022-08-08T07:14:09.593Z,1008.82
2022-08-08T07:15:32.595Z,1008.86
2022-08-08T07:16:10.212Z,1008.76
2022-08-08T07:17:14.355Z,1008.62
2022-08-08T07:18:36.697Z,1009.01
2022-08-08T07:19:12.118Z,1009.41
2022-08-08T07:20:11.156Z,1009.72
2022-08-08T07:21:19.040Z,1009.87
2022-08-08T07:22:19.328Z,1010.07
2022-08-08T07:23:12.231Z,1010.29
2022-08-08T07:24:13.181Z,1010.53
2022-08-08T07:25:14.506Z,1010.59
2022-08-08T07:26:12.728Z,1010.70
2022-08-08T07:27:16.641Z,1010.90
2022-08-08T07:28:18.807Z,1010.97
2022-08-08T07:29:55.389Z,1010.97
2022-08-08T07:30:18.101Z,1010.47
2022-08-08T07:31:14.601Z,1009.61
2022-08-08T07:32:16.933Z,1008.93
2022-08-08T07:33:17.749Z,1008.18
2022-08-08T07:34:26.609Z,1007.50
2022-08-08T07:35:14.217Z,1006.97
2022-08-08T07:36:15.069Z,1006.74
2022-08-08T07:37:13.681Z,1006.90
2022-08-08T07:38:20.385Z,1007.34
2022-08-08T07:39:14.882Z,1007.70
2022-08-08T07:40:28.929Z,1008.00
2022-08-08T07:41:23.572Z,1008.21
2022-08-08T07:42:18.847Z,1008.49
2022-08-08T07:43:14.638Z,1008.82
2022-08-08T07:44:33.513Z,1008.94
2022-08-08T07:45:17.802Z,1009.05
2022-08-08T07:46:18.037Z,1009.26
2022-08-08T07:47:16.113Z,1009.56
2022-08-08T07:48:15.207Z,1009.71
2022-08-08T07:49:16.127Z,1009.87
2022-08-08T07:50:15.601Z,1010.02
2022-08-08T07:51:23.805Z,1010.21
2022-08-08T07:52:23.204Z,1010.24
2022-08-08T07:53:52.396Z,1010.31
2022-08-08T07:54:26.536Z,1010.39
2022-08-08T07:55:17.454Z,1010.56
2022-08-08T07:56:16.651Z,1010.69
2022-08-08T07:57:19.956Z,1010.85
2022-08-08T07:58:17.080Z,1010.96
2022-08-08T07:59:19.441Z,1011.05
2022-08-08T08:00:17.489Z,1011.08
2022-08-08T08:01:17.676Z,1011.15
2022-08-08T08:02:34.428Z,1011.28
2022-08-08T08:03:23.509Z,1011.31
2022-08-08T08:04:19.232Z,1011.34
2022-08-08T08:05:18.652Z,1011.48
2022-08-08T08:06:18.541Z,1011.53
2022-08-08T08:07:25.991Z,1011.55
2022-08-08T08:08:20.465Z,1011.67
2022-08-08T08:09:20.134Z,1011.63
2022-08-08T08:10:30.372Z,1011.68
2022-08-08T08:11:20.864Z,1011.73
2022-08-08T08:12:31.547Z,1011.74
2022-08-08T08:13:25.741Z,1011.77
2022-08-08T08:14:22.138Z,1011.79
2022-08-08T08:15:21.723Z,1011.81
2022-08-08T08:16:20.516Z,1011.78
2022-08-08T08:17:21.637Z,1011.79
2022-08-08T08:18:31.856Z,1011.87
2022-08-08T08:19:22.644Z,1011.97
2022-08-08T08:20:21.194Z,1012.01
2022-08-08T08:21:44.181Z,1012.02
2022-08-08T08:22:31.436Z,1012.03
2022-08-08T08:23:22.716Z,1012.05
2022-08-08T08:24:26.702Z,1012.08
2022-08-08T08:25:42.918Z,1012.09
2022-08-08T08:26:27.543Z,1012.13
2022-08-08T08:27:23.610Z,1012.15
2022-08-08T08:28:24.159Z,1012.16
2022-08-08T08:29:22.879Z,1012.20
2022-08-08T08:30:25.073Z,1012.27
2022-08-08T08:31:23.248Z,1012.22
2022-08-08T08:32:31.679Z,1012.24
2022-08-08T08:33:24.648Z,1012.28
2022-08-08T08:34:24.646Z,1012.29
2022-08-08T08:35:29.998Z,1012.30
2022-08-08T08:36:26.574Z,1012.32
2022-08-08T08:37:29.846Z,1012.29
2022-08-08T08:38:27.646Z,1012.34
2022-08-08T08:39:24.869Z,1012.35
2022-08-08T08:40:26.090Z,1012.31
2022-08-08T08:41:25.257Z,1012.30
2022-08-08T08:42:31.706Z,1012.35
2022-08-08T08:43:29.173Z,1012.34
2022-08-08T08:44:29.011Z,1012.31
2022-08-08T08:45:26.384Z,1012.39
2022-08-08T08:46:27.150Z,1012.39
2022-08-08T08:47:27.324Z,1012.39
2022-08-08T08:48:27.495Z,1012.40
2022-08-08T08:49:30.637Z,1012.38
2022-08-08T08:50:32.448Z,1012.37
2022-08-08T08:51:28.005Z,1012.36
2022-08-08T08:52:28.736Z,1012.35
2022-08-08T08:53:55.968Z,1012.29
2022-08-08T08:54:28.551Z,1012.34
2022-08-08T08:55:28.524Z,1012.38
2022-08-08T08:56:29.458Z,1012.39
2022-08-08T08:57:28.821Z,1012.37
2022-08-08T08:58:28.288Z,1012.38
2022-08-08T08:59:59.654Z,1012.36
2022-08-08T09:00:49.853Z,1012.34
2022-08-08T09:01:30.918Z,1012.34
2022-08-08T09:02:29.651Z,1012.34
2022-08-08T09:03:46.139Z,1012.32
2022-08-08T09:04:37.485Z,1012.27
2022-08-08T09:05:53.822Z,1012.30
2022-08-08T09:06:33.532Z,1012.27
2022-08-08T09:07:38.831Z,1012.28
2022-08-08T09:08:31.659Z,1012.26
2022-08-08T09:09:39.048Z,1012.24
2022-08-08T09:10:32.160Z,1012.22
2022-08-08T09:11:33.080Z,1012.13
2022-08-08T09:12:31.657Z,1012.08
2022-08-08T09:13:32.628Z,1012.09
2022-08-08T09:14:31.113Z,1012.03
2022-08-08T09:15:40.930Z,1012.05
2022-08-08T09:16:32.774Z,1011.99
2022-08-08T09:17:41.775Z,1011.87
2022-08-08T09:18:32.800Z,1011.77
2022-08-08T09:21:58.128Z,1011.60
2022-08-08T09:21:58.128Z,1011.61
2022-08-08T09:21:59.700Z,1011.56
2022-08-08T09:22:34.176Z,1011.50
2022-08-08T09:23:33.650Z,1011.45
2022-08-08T09:24:33.800Z,1011.50
2022-08-08T09:25:36.308Z,1011.48
2022-08-08T09:26:39.386Z,1011.53
2022-08-08T09:27:42.059Z,1011.50
2022-08-08T09:28:37.391Z,1011.48
2022-08-08T09:29:35.664Z,1011.48
2022-08-08T09:30:35.673Z,1011.55
2022-08-08T09:31:42.503Z,1011.55
2022-08-08T09:32:35.287Z,1011.58
2022-08-08T09:34:15.520Z,1011.57
2022-08-08T09:34:35.717Z,1011.63
2022-08-08T09:35:37.141Z,1011.59
2022-08-08T09:36:35.881Z,1011.59
2022-08-08T09:37:58.874Z,1011.71
2022-08-08T09:38:51.948Z,1011.66
2022-08-08T09:39:36.706Z,1011.62
2022-08-08T09:40:47.778Z,1011.69
2022-08-08T09:42:14.661Z,1011.72
2022-08-08T09:42:44.473Z,1011.68
2022-08-08T09:44:04.791Z,1011.70
2022-08-08T09:44:37.432Z,1011.74
2022-08-08T09:46:00.645Z,1011.77
2022-08-08T09:46:38.817Z,1011.77
2022-08-08T09:48:04.116Z,1011.71
2022-08-08T09:48:42.658Z,1011.72
2022-08-08T09:49:49.463Z,1011.69
2022-08-08T09:50:44.020Z,1011.75
2022-08-08T09:51:41.521Z,1011.69
2022-08-08T09:52:56.550Z,1011.68
2022-08-08T09:53:59.383Z,1011.73
2022-08-08T09:54:39.796Z,1011.70
2022-08-08T09:56:03.433Z,1011.69
2022-08-08T09:56:41.301Z,1011.70
2022-08-08T09:57:46.254Z,1011.73
2022-08-08T09:58:41.558Z,1011.71
2022-08-08T10:00:02.011Z,1011.66
2022-08-08T10:00:50.091Z,1011.66
2022-08-08T10:02:00.223Z,1011.67
2022-08-08T10:02:41.178Z,1011.59
2022-08-08T10:03:40.681Z,1011.69
2022-08-08T10:04:42.329Z,1011.61
2022-08-08T10:05:41.755Z,1011.68
2022-08-08T10:06:41.278Z,1011.59
2022-08-08T10:07:44.913Z,1011.61
2022-08-08T10:08:40.668Z,1011.60
2022-08-08T10:09:59.579Z,1011.62
2022-08-08T10:10:50.023Z,1011.61
2022-08-08T10:12:25.948Z,1011.56
2022-08-08T10:12:52.992Z,1011.55
2022-08-08T10:13:43.039Z,1011.53
2022-08-08T10:14:42.904Z,1011.53
2022-08-08T10:16:00.956Z,1011.49
2022-08-08T10:16:44.204Z,1011.45
2022-08-08T10:18:05.929Z,1011.47
2022-08-08T10:18:43.695Z,1011.39
2022-08-08T10:19:46.154Z,1011.46
2022-08-08T10:20:50.926Z,1011.47
2022-08-08T10:21:51.081Z,1011.50
2022-08-08T10:22:55.019Z,1011.48
2022-08-08T10:23:48.332Z,1011.50
2022-08-08T10:24:46.000Z,1011.33
2022-08-08T10:25:57.176Z,1011.28
2022-08-08T10:26:56.959Z,1011.27
2022-08-08T10:27:45.631Z,1011.27
2022-08-08T10:28:45.685Z,1011.26
2022-08-08T10:29:59.067Z,1011.29
2022-08-08T10:30:59.796Z,1011.30
2022-08-08T10:31:47.530Z,1011.34
2022-08-08T10:32:48.756Z,1011.32
2022-08-08T10:34:18.195Z,1011.38
2022-08-08T10:34:47.053Z,1011.31
2022-08-08T10:36:20.807Z,1011.31
2022-08-08T10:36:48.199Z,1011.35
2022-08-08T10:37:46.545Z,1011.38
2022-08-08T10:38:46.667Z,1011.38
2022-08-08T10:39:54.441Z,1011.42
2022-08-08T10:40:47.940Z,1011.39
2022-08-08T10:41:58.932Z,1011.41
2022-08-08T10:42:49.200Z,1011.43
2022-08-08T10:43:47.542Z,1011.43
2022-08-08T10:44:49.217Z,1011.44
2022-08-08T10:45:55.581Z,1011.39
2022-08-08T10:46:49.692Z,1011.49
2022-08-08T10:47:48.768Z,1011.47
2022-08-08T10:48:56.906Z,1011.50
2022-08-08T10:50:01.418Z,1011.49
2022-08-08T10:50:49.688Z,1011.50
2022-08-08T10:51:51.422Z,1011.50
2022-08-08T10:52:49.702Z,1011.45
2022-08-08T10:53:57.868Z,1011.53
2022-08-08T10:54:50.402Z,1011.53
2022-08-08T10:55:49.563Z,1011.45
2022-08-08T10:56:49.777Z,1011.38
2022-08-08T10:57:53.130Z,1011.26
2022-08-08T10:58:54.902Z,1011.21
2022-08-08T10:59:50.708Z,1011.05
2022-08-08T11:01:01.576Z,1010.99
2022-08-08T11:01:54.872Z,1010.80
2022-08-08T11:02:50.906Z,1010.62
2022-08-08T11:04:00.971Z,1010.52
2022-08-08T11:04:53.298Z,1010.35
2022-08-08T11:06:00.606Z,1010.26
2022-08-08T11:06:52.728Z,1010.19
2022-08-08T11:08:31.759Z,1010.09
2022-08-08T11:08:53.964Z,1010.06
2022-08-08T11:09:52.702Z,1009.96
2022-08-08T11:10:52.410Z,1009.92
2022-08-08T11:12:05.864Z,1009.92
2022-08-08T11:13:12.214Z,1009.96
2022-08-08T11:14:00.055Z,1009.93
2022-08-08T11:14:54.212Z,1009.96
2022-08-08T11:16:00.513Z,1009.94
2022-08-08T11:16:54.517Z,1010.09
2022-08-08T11:18:00.914Z,1010.07
2022-08-08T11:18:54.807Z,1010.13
2022-08-08T11:19:54.217Z,1010.17
2022-08-08T11:20:54.236Z,1010.23
2022-08-08T11:21:55.957Z,1010.20
2022-08-08T11:22:54.624Z,1010.29
2022-08-08T11:24:02.920Z,1010.30
2022-08-08T11:24:55.965Z,1010.39
2022-08-08T11:25:57.206Z,1010.38
2022-08-08T11:26:57.258Z,1010.42
2022-08-08T11:27:56.213Z,1010.49
2022-08-08T11:28:55.616Z,1010.48
2022-08-08T11:30:19.300Z,1010.51
2022-08-08T11:30:56.907Z,1010.46
2022-08-08T11:31:57.225Z,1010.50
2022-08-08T11:32:56.725Z,1010.53
2022-08-08T11:34:02.956Z,1010.54
2022-08-08T11:35:10.645Z,1010.59
2022-08-08T11:35:58.687Z,1010.58
2022-08-08T11:36:58.834Z,1010.65
2022-08-08T11:38:35.947Z,1010.69
2022-08-08T11:38:59.232Z,1010.72
2022-08-08T11:39:57.947Z,1010.67
2022-08-08T11:40:57.544Z,1010.73
2022-08-08T11:41:57.714Z,1010.68
2022-08-08T11:42:57.900Z,1010.70
2022-08-08T11:43:58.711Z,1010.71
2022-08-08T11:44:58.273Z,1010.73
2022-08-08T11:46:13.321Z,1010.68
2022-08-08T11:47:01.252Z,1010.74
2022-08-08T11:48:02.753Z,1010.70
2022-08-08T11:49:00.096Z,1010.70
2022-08-08T11:49:59.256Z,1010.68
2022-08-08T11:50:59.424Z,1010.65
2022-08-08T11:52:00.554Z,1010.65
2022-08-08T11:52:59.782Z,1010.61
2022-08-08T11:54:02.000Z,1010.57
2022-08-08T11:55:00.151Z,1010.53
2022-08-08T11:56:01.284Z,1010.47
2022-08-08T11:57:00.731Z,1010.42
2022-08-08T11:58:04.137Z,1010.35
2022-08-08T11:59:01.850Z,1010.30
2022-08-08T12:00:05.776Z,1010.34
2022-08-08T12:01:02.151Z,1010.34
2022-08-08T12:02:30.538Z,1010.35
2022-08-08T12:03:03.706Z,1010.34
2022-08-08T12:04:01.855Z,1010.33
2022-08-08T12:05:01.960Z,1010.26
2022-08-08T12:06:02.082Z,1010.17
2022-08-08T12:07:02.226Z,1010.14